sensor_id;sensor_type;location;lat;lon;timestamp;temperature;humidity
71184;DHT22;58887;51.980;4.464;2023-09-18T00:02:09;20.44;84.76
71184;DHT22;58887;51.980;4.464;2023-09-18T00:04:35;20.38;84.79
71184;DHT22;58887;51.980;4.464;2023-09-18T00:07:00;20.38;84.89
71184;DHT22;58887;51.980;4.464;2023-09-18T00:09:26;20.40;84.70
71184;DHT22;58887;51.980;4.464;2023-09-18T00:11:51;20.38;84.87
71184;DHT22;58887;51.980;4.464;2023-09-18T00:14:18;20.41;84.71
71184;DHT22;58887;51.980;4.464;2023-09-18T00:16:44;20.38;84.68
71184;DHT22;58887;51.980;4.464;2023-09-18T00:19:09;20.43;84.72
71184;DHT22;58887;51.980;4.464;2023-09-18T00:21:36;20.36;85.00
71184;DHT22;58887;51.980;4.464;2023-09-18T00:24:02;20.37;85.06
71184;DHT22;58887;51.980;4.464;2023-09-18T00:26:28;20.41;84.87
71184;DHT22;58887;51.980;4.464;2023-09-18T00:28:54;20.44;84.81
71184;DHT22;58887;51.980;4.464;2023-09-18T00:31:19;20.47;84.69
71184;DHT22;58887;51.980;4.464;2023-09-18T00:33:45;20.47;84.64
71184;DHT22;58887;51.980;4.464;2023-09-18T00:36:10;20.48;84.53
71184;DHT22;58887;51.980;4.464;2023-09-18T00:38:36;20.51;84.53
71184;DHT22;58887;51.980;4.464;2023-09-18T00:41:01;20.49;84.50
71184;DHT22;58887;51.980;4.464;2023-09-18T00:43:27;20.54;84.48
71184;DHT22;58887;51.980;4.464;2023-09-18T00:45:53;20.55;84.23
71184;DHT22;58887;51.980;4.464;2023-09-18T00:48:19;20.51;84.40
71184;DHT22;58887;51.980;4.464;2023-09-18T00:50:45;20.52;84.31
71184;DHT22;58887;51.980;4.464;2023-09-18T00:53:23;20.51;84.30
71184;DHT22;58887;51.980;4.464;2023-09-18T00:55:53;20.51;84.24
71184;DHT22;58887;51.980;4.464;2023-09-18T00:58:20;20.45;84.16
71184;DHT22;58887;51.980;4.464;2023-09-18T01:00:47;20.48;84.33
71184;DHT22;58887;51.980;4.464;2023-09-18T01:03:16;20.51;84.44
71184;DHT22;58887;51.980;4.464;2023-09-18T01:05:44;20.52;84.36
71184;DHT22;58887;51.980;4.464;2023-09-18T01:08:10;20.54;84.33
71184;DHT22;58887;51.980;4.464;2023-09-18T01:11:02;20.51;84.33
71184;DHT22;58887;51.980;4.464;2023-09-18T01:13:37;20.52;84.50
71184;DHT22;58887;51.980;4.464;2023-09-18T01:16:24;20.55;84.39
71184;DHT22;58887;51.980;4.464;2023-09-18T01:18:51;20.54;84.27
71184;DHT22;58887;51.980;4.464;2023-09-18T01:21:19;20.47;84.43
71184;DHT22;58887;51.980;4.464;2023-09-18T01:23:45;20.43;84.51
71184;DHT22;58887;51.980;4.464;2023-09-18T01:26:10;20.51;84.50
71184;DHT22;58887;51.980;4.464;2023-09-18T01:28:35;20.47;84.48
71184;DHT22;58887;51.980;4.464;2023-09-18T01:31:01;20.51;84.60
71184;DHT22;58887;51.980;4.464;2023-09-18T01:33:29;20.44;84.56
71184;DHT22;58887;51.980;4.464;2023-09-18T01:35:56;20.43;84.84
71184;DHT22;58887;51.980;4.464;2023-09-18T01:38:23;20.47;84.70
71184;DHT22;58887;51.980;4.464;2023-09-18T01:40:51;20.55;84.49
71184;DHT22;58887;51.980;4.464;2023-09-18T01:43:19;20.48;84.52
71184;DHT22;58887;51.980;4.464;2023-09-18T01:45:45;20.54;84.64
71184;DHT22;58887;51.980;4.464;2023-09-18T01:48:11;20.57;84.65
71184;DHT22;58887;51.980;4.464;2023-09-18T01:50:37;20.57;84.63
71184;DHT22;58887;51.980;4.464;2023-09-18T01:53:03;20.65;84.72
71184;DHT22;58887;51.980;4.464;2023-09-18T01:55:29;20.69;84.61
71184;DHT22;58887;51.980;4.464;2023-09-18T01:57:55;20.72;84.34
71184;DHT22;58887;51.980;4.464;2023-09-18T02:00:21;20.71;84.48
71184;DHT22;58887;51.980;4.464;2023-09-18T02:02:46;20.72;84.25
71184;DHT22;58887;51.980;4.464;2023-09-18T02:05:12;20.72;84.51
71184;DHT22;58887;51.980;4.464;2023-09-18T02:07:37;20.76;84.34
71184;DHT22;58887;51.980;4.464;2023-09-18T02:10:04;20.74;84.50
71184;DHT22;58887;51.980;4.464;2023-09-18T02:12:29;20.74;84.38
71184;DHT22;58887;51.980;4.464;2023-09-18T02:14:55;20.82;84.18
71184;DHT22;58887;51.980;4.464;2023-09-18T02:17:22;20.79;84.12
71184;DHT22;58887;51.980;4.464;2023-09-18T02:19:48;20.76;84.19
71184;DHT22;58887;51.980;4.464;2023-09-18T02:22:13;20.75;83.99
71184;DHT22;58887;51.980;4.464;2023-09-18T02:24:39;20.72;84.09
71184;DHT22;58887;51.980;4.464;2023-09-18T02:27:04;20.64;84.23
71184;DHT22;58887;51.980;4.464;2023-09-18T02:29:31;20.71;84.23
71184;DHT22;58887;51.980;4.464;2023-09-18T02:31:56;20.75;84.26
71184;DHT22;58887;51.980;4.464;2023-09-18T02:34:22;20.74;84.35
71184;DHT22;58887;51.980;4.464;2023-09-18T02:36:47;20.81;84.35
71184;DHT22;58887;51.980;4.464;2023-09-18T02:39:13;20.85;84.47
71184;DHT22;58887;51.980;4.464;2023-09-18T02:41:38;20.86;84.36
71184;DHT22;58887;51.980;4.464;2023-09-18T02:44:04;20.89;84.20
71184;DHT22;58887;51.980;4.464;2023-09-18T02:46:30;20.92;84.14
71184;DHT22;58887;51.980;4.464;2023-09-18T02:48:55;20.89;84.08
71184;DHT22;58887;51.980;4.464;2023-09-18T02:51:21;20.88;84.28
71184;DHT22;58887;51.980;4.464;2023-09-18T02:53:46;20.96;84.15
71184;DHT22;58887;51.980;4.464;2023-09-18T02:56:12;20.92;84.10
71184;DHT22;58887;51.980;4.464;2023-09-18T02:58:37;20.92;84.20
71184;DHT22;58887;51.980;4.464;2023-09-18T03:01:03;20.94;84.08
71184;DHT22;58887;51.980;4.464;2023-09-18T03:03:30;20.98;84.17
71184;DHT22;58887;51.980;4.464;2023-09-18T03:06:04;20.92;84.10
71184;DHT22;58887;51.980;4.464;2023-09-18T03:08:30;20.81;84.63
71184;DHT22;58887;51.980;4.464;2023-09-18T03:10:56;20.84;84.66
71184;DHT22;58887;51.980;4.464;2023-09-18T03:13:22;20.92;84.54
71184;DHT22;58887;51.980;4.464;2023-09-18T03:15:47;20.91;84.55
71184;DHT22;58887;51.980;4.464;2023-09-18T03:18:13;20.89;84.60
71184;DHT22;58887;51.980;4.464;2023-09-18T03:20:39;20.88;84.69
71184;DHT22;58887;51.980;4.464;2023-09-18T03:23:04;20.96;84.63
71184;DHT22;58887;51.980;4.464;2023-09-18T03:25:30;20.96;84.46
71184;DHT22;58887;51.980;4.464;2023-09-18T03:27:57;20.71;85.60
71184;DHT22;58887;51.980;4.464;2023-09-18T03:30:32;20.65;86.22
71184;DHT22;58887;51.980;4.464;2023-09-18T03:32:58;20.64;86.46
71184;DHT22;58887;51.980;4.464;2023-09-18T03:35:28;20.57;87.10
71184;DHT22;58887;51.980;4.464;2023-09-18T03:37:53;20.57;87.27
71184;DHT22;58887;51.980;4.464;2023-09-18T03:40:20;20.51;88.00
71184;DHT22;58887;51.980;4.464;2023-09-18T03:42:46;20.43;88.40
71184;DHT22;58887;51.980;4.464;2023-09-18T03:45:13;20.37;88.64
71184;DHT22;58887;51.980;4.464;2023-09-18T03:47:40;20.34;88.82
71184;DHT22;58887;51.980;4.464;2023-09-18T03:50:08;20.30;89.20
71184;DHT22;58887;51.980;4.464;2023-09-18T03:52:34;20.30;89.34
71184;DHT22;58887;51.980;4.464;2023-09-18T03:55:00;20.30;89.39
71184;DHT22;58887;51.980;4.464;2023-09-18T03:57:25;20.28;89.56
71184;DHT22;58887;51.980;4.464;2023-09-18T03:59:51;20.14;89.85
71184;DHT22;58887;51.980;4.464;2023-09-18T04:02:16;20.23;89.73
71184;DHT22;58887;51.980;4.464;2023-09-18T04:04:42;20.27;89.49
71184;DHT22;58887;51.980;4.464;2023-09-18T04:07:08;20.28;89.31
71184;DHT22;58887;51.980;4.464;2023-09-18T04:09:34;20.37;89.03
71184;DHT22;58887;51.980;4.464;2023-09-18T04:12:03;20.34;89.01
71184;DHT22;58887;51.980;4.464;2023-09-18T04:14:31;20.43;88.65
71184;DHT22;58887;51.980;4.464;2023-09-18T04:16:57;20.43;88.61
71184;DHT22;58887;51.980;4.464;2023-09-18T04:19:22;20.45;88.81
71184;DHT22;58887;51.980;4.464;2023-09-18T04:21:48;20.48;88.57
71184;DHT22;58887;51.980;4.464;2023-09-18T04:24:14;20.48;88.41
71184;DHT22;58887;51.980;4.464;2023-09-18T04:26:39;20.58;88.37
71184;DHT22;58887;51.980;4.464;2023-09-18T04:29:05;20.59;88.16
71184;DHT22;58887;51.980;4.464;2023-09-18T04:31:31;20.65;88.09
71184;DHT22;58887;51.980;4.464;2023-09-18T04:33:57;20.64;88.05
71184;DHT22;58887;51.980;4.464;2023-09-18T04:36:23;20.61;87.99
71184;DHT22;58887;51.980;4.464;2023-09-18T04:38:48;20.63;88.08
71184;DHT22;58887;51.980;4.464;2023-09-18T04:41:14;20.65;87.94
71184;DHT22;58887;51.980;4.464;2023-09-18T04:43:40;20.59;87.71
71184;DHT22;58887;51.980;4.464;2023-09-18T04:46:06;20.63;87.87
71184;DHT22;58887;51.980;4.464;2023-09-18T04:48:32;20.65;87.91
71184;DHT22;58887;51.980;4.464;2023-09-18T04:50:59;20.52;88.00
71184;DHT22;58887;51.980;4.464;2023-09-18T04:53:25;20.55;88.24
71184;DHT22;58887;51.980;4.464;2023-09-18T04:55:52;20.51;88.24
71184;DHT22;58887;51.980;4.464;2023-09-18T04:58:18;20.57;88.18
71184;DHT22;58887;51.980;4.464;2023-09-18T05:00:44;20.58;88.05
71184;DHT22;58887;51.980;4.464;2023-09-18T05:03:10;20.57;87.95
71184;DHT22;58887;51.980;4.464;2023-09-18T05:05:36;20.52;88.02
71184;DHT22;58887;51.980;4.464;2023-09-18T05:08:04;20.49;88.13
71184;DHT22;58887;51.980;4.464;2023-09-18T05:10:35;20.43;88.35
71184;DHT22;58887;51.980;4.464;2023-09-18T05:13:02;20.45;88.55
71184;DHT22;58887;51.980;4.464;2023-09-18T05:15:28;20.44;88.83
71184;DHT22;58887;51.980;4.464;2023-09-18T05:17:58;20.38;89.06
71184;DHT22;58887;51.980;4.464;2023-09-18T05:20:25;20.44;89.05
71184;DHT22;58887;51.980;4.464;2023-09-18T05:22:52;20.45;89.12
71184;DHT22;58887;51.980;4.464;2023-09-18T05:25:25;20.37;89.25
71184;DHT22;58887;51.980;4.464;2023-09-18T05:27:52;20.38;89.39
71184;DHT22;58887;51.980;4.464;2023-09-18T05:30:27;20.40;89.34
71184;DHT22;58887;51.980;4.464;2023-09-18T05:32:55;20.47;89.18
71184;DHT22;58887;51.980;4.464;2023-09-18T05:35:20;20.64;88.92
71184;DHT22;58887;51.980;4.464;2023-09-18T05:37:46;20.61;88.36
71184;DHT22;58887;51.980;4.464;2023-09-18T05:40:13;20.65;88.53
71184;DHT22;58887;51.980;4.464;2023-09-18T05:42:41;20.69;88.29
71184;DHT22;58887;51.980;4.464;2023-09-18T05:45:14;20.71;88.09
71184;DHT22;58887;51.980;4.464;2023-09-18T05:47:40;20.74;87.87
71184;DHT22;58887;51.980;4.464;2023-09-18T05:50:12;20.75;87.67
71184;DHT22;58887;51.980;4.464;2023-09-18T05:52:47;20.65;87.79
71184;DHT22;58887;51.980;4.464;2023-09-18T05:55:17;20.75;87.59
71184;DHT22;58887;51.980;4.464;2023-09-18T05:57:42;20.71;87.56
71184;DHT22;58887;51.980;4.464;2023-09-18T06:00:09;20.67;87.55
71184;DHT22;58887;51.980;4.464;2023-09-18T06:02:39;20.76;87.43
71184;DHT22;58887;51.980;4.464;2023-09-18T06:05:05;20.68;87.29
71184;DHT22;58887;51.980;4.464;2023-09-18T06:07:32;20.61;87.12
71184;DHT22;58887;51.980;4.464;2023-09-18T06:09:58;20.55;87.43
71184;DHT22;58887;51.980;4.464;2023-09-18T06:12:23;20.51;87.35
71184;DHT22;58887;51.980;4.464;2023-09-18T06:14:50;20.49;87.36
71184;DHT22;58887;51.980;4.464;2023-09-18T06:17:16;20.52;87.20
71184;DHT22;58887;51.980;4.464;2023-09-18T06:19:43;20.47;87.10
71184;DHT22;58887;51.980;4.464;2023-09-18T06:22:09;20.40;86.88
71184;DHT22;58887;51.980;4.464;2023-09-18T06:24:35;20.40;86.84
71184;DHT22;58887;51.980;4.464;2023-09-18T06:27:01;20.34;86.88
71184;DHT22;58887;51.980;4.464;2023-09-18T06:29:30;20.37;86.44
71184;DHT22;58887;51.980;4.464;2023-09-18T06:31:56;20.37;86.49
71184;DHT22;58887;51.980;4.464;2023-09-18T06:34:21;20.34;86.34
71184;DHT22;58887;51.980;4.464;2023-09-18T06:36:47;20.34;86.03
71184;DHT22;58887;51.980;4.464;2023-09-18T06:39:12;20.24;85.80
71184;DHT22;58887;51.980;4.464;2023-09-18T06:41:37;20.26;85.76
71184;DHT22;58887;51.980;4.464;2023-09-18T06:44:03;20.23;85.35
71184;DHT22;58887;51.980;4.464;2023-09-18T06:46:29;20.18;85.11
71184;DHT22;58887;51.980;4.464;2023-09-18T06:48:56;20.20;85.11
71184;DHT22;58887;51.980;4.464;2023-09-18T06:51:22;20.14;85.65
71184;DHT22;58887;51.980;4.464;2023-09-18T06:53:47;20.24;85.54
71184;DHT22;58887;51.980;4.464;2023-09-18T06:56:13;20.21;85.34
71184;DHT22;58887;51.980;4.464;2023-09-18T06:58:39;20.09;85.06
71184;DHT22;58887;51.980;4.464;2023-09-18T07:01:05;20.09;85.07
71184;DHT22;58887;51.980;4.464;2023-09-18T07:03:32;20.09;84.94
71184;DHT22;58887;51.980;4.464;2023-09-18T07:06:00;20.09;84.97
71184;DHT22;58887;51.980;4.464;2023-09-18T07:08:25;20.10;85.12
71184;DHT22;58887;51.980;4.464;2023-09-18T07:10:51;20.13;85.29
71184;DHT22;58887;51.980;4.464;2023-09-18T07:13:17;20.23;85.18
71184;DHT22;58887;51.980;4.464;2023-09-18T07:15:42;20.21;85.18
71184;DHT22;58887;51.980;4.464;2023-09-18T07:18:09;20.23;85.43
71184;DHT22;58887;51.980;4.464;2023-09-18T07:20:45;20.43;85.29
71184;DHT22;58887;51.980;4.464;2023-09-18T07:23:11;20.49;84.71
71184;DHT22;58887;51.980;4.464;2023-09-18T07:25:36;20.33;85.14
71184;DHT22;58887;51.980;4.464;2023-09-18T07:28:06;20.27;85.35
71184;DHT22;58887;51.980;4.464;2023-09-18T07:30:31;20.31;85.23
71184;DHT22;58887;51.980;4.464;2023-09-18T07:32:57;20.27;85.32
71184;DHT22;58887;51.980;4.464;2023-09-18T07:35:23;20.36;85.21
71184;DHT22;58887;51.980;4.464;2023-09-18T07:37:49;20.48;84.90
71184;DHT22;58887;51.980;4.464;2023-09-18T07:40:15;20.28;84.85
71184;DHT22;58887;51.980;4.464;2023-09-18T07:42:41;20.40;84.36
71184;DHT22;58887;51.980;4.464;2023-09-18T07:45:12;20.55;84.03
71184;DHT22;58887;51.980;4.464;2023-09-18T07:47:38;20.48;84.14
71184;DHT22;58887;51.980;4.464;2023-09-18T07:50:04;20.71;82.69
71184;DHT22;58887;51.980;4.464;2023-09-18T07:52:30;20.72;83.34
71184;DHT22;58887;51.980;4.464;2023-09-18T07:54:57;20.64;83.48
71184;DHT22;58887;51.980;4.464;2023-09-18T07:57:23;20.91;83.26
71184;DHT22;58887;51.980;4.464;2023-09-18T07:59:49;21.15;82.59
71184;DHT22;58887;51.980;4.464;2023-09-18T08:02:15;21.54;81.81
71184;DHT22;58887;51.980;4.464;2023-09-18T08:04:41;21.56;80.67
71184;DHT22;58887;51.980;4.464;2023-09-18T08:07:07;21.63;80.27
71184;DHT22;58887;51.980;4.464;2023-09-18T08:09:33;21.88;79.79
71184;DHT22;58887;51.980;4.464;2023-09-18T08:12:06;21.78;79.10
71184;DHT22;58887;51.980;4.464;2023-09-18T08:14:32;21.70;78.94
71184;DHT22;58887;51.980;4.464;2023-09-18T08:17:01;21.63;78.67
71184;DHT22;58887;51.980;4.464;2023-09-18T08:19:28;21.63;79.30
71184;DHT22;58887;51.980;4.464;2023-09-18T08:21:54;21.60;78.25
71184;DHT22;58887;51.980;4.464;2023-09-18T08:24:22;21.61;79.27
71184;DHT22;58887;51.980;4.464;2023-09-18T08:26:48;21.56;79.42
71184;DHT22;58887;51.980;4.464;2023-09-18T08:29:15;21.30;79.67
71184;DHT22;58887;51.980;4.464;2023-09-18T08:31:41;21.20;80.14
71184;DHT22;58887;51.980;4.464;2023-09-18T08:34:07;20.99;80.11
71184;DHT22;58887;51.980;4.464;2023-09-18T08:36:32;21.03;78.70
71184;DHT22;58887;51.980;4.464;2023-09-18T08:38:58;20.92;78.90
71184;DHT22;58887;51.980;4.464;2023-09-18T08:41:28;20.96;78.54
71184;DHT22;58887;51.980;4.464;2023-09-18T08:44:01;20.86;79.07
71184;DHT22;58887;51.980;4.464;2023-09-18T08:46:29;20.71;79.47
71184;DHT22;58887;51.980;4.464;2023-09-18T08:48:56;20.47;79.97
71184;DHT22;58887;51.980;4.464;2023-09-18T08:51:22;20.59;80.05
71184;DHT22;58887;51.980;4.464;2023-09-18T08:53:48;20.71;79.93
71184;DHT22;58887;51.980;4.464;2023-09-18T08:56:15;20.69;79.04
71184;DHT22;58887;51.980;4.464;2023-09-18T08:58:43;20.63;79.68
71184;DHT22;58887;51.980;4.464;2023-09-18T09:01:10;20.78;79.24
71184;DHT22;58887;51.980;4.464;2023-09-18T09:03:40;20.76;79.44
71184;DHT22;58887;51.980;4.464;2023-09-18T09:06:06;20.74;78.11
71184;DHT22;58887;51.980;4.464;2023-09-18T09:08:33;20.69;78.27
71184;DHT22;58887;51.980;4.464;2023-09-18T09:10:59;20.69;77.89
71184;DHT22;58887;51.980;4.464;2023-09-18T09:13:25;20.68;78.01
71184;DHT22;58887;51.980;4.464;2023-09-18T09:15:53;20.84;78.12
71184;DHT22;58887;51.980;4.464;2023-09-18T09:18:22;20.78;76.58
71184;DHT22;58887;51.980;4.464;2023-09-18T09:20:59;20.86;76.62
71184;DHT22;58887;51.980;4.464;2023-09-18T09:23:28;20.98;77.18
71184;DHT22;58887;51.980;4.464;2023-09-18T09:25:59;21.10;75.90
71184;DHT22;58887;51.980;4.464;2023-09-18T09:28:37;21.10;75.62
71184;DHT22;58887;51.980;4.464;2023-09-18T09:31:03;21.07;75.09
71184;DHT22;58887;51.980;4.464;2023-09-18T09:33:29;21.49;74.57
71184;DHT22;58887;51.980;4.464;2023-09-18T09:35:56;22.14;72.98
71184;DHT22;58887;51.980;4.464;2023-09-18T09:38:28;23.06;69.64
71184;DHT22;58887;51.980;4.464;2023-09-18T09:40:54;23.07;69.27
71184;DHT22;58887;51.980;4.464;2023-09-18T09:43:20;22.94;70.31
71184;DHT22;58887;51.980;4.464;2023-09-18T09:45:46;23.15;69.22
71184;DHT22;58887;51.980;4.464;2023-09-18T09:48:11;22.84;69.29
71184;DHT22;58887;51.980;4.464;2023-09-18T09:50:46;23.68;67.18
71184;DHT22;58887;51.980;4.464;2023-09-18T09:53:14;23.73;66.54
71184;DHT22;58887;51.980;4.464;2023-09-18T09:55:40;23.54;66.73
71184;DHT22;58887;51.980;4.464;2023-09-18T09:58:07;23.34;67.95
71184;DHT22;58887;51.980;4.464;2023-09-18T10:00:40;22.55;69.81
71184;DHT22;58887;51.980;4.464;2023-09-18T10:03:10;22.33;70.51
71184;DHT22;58887;51.980;4.464;2023-09-18T10:05:40;22.00;71.34
71184;DHT22;58887;51.980;4.464;2023-09-18T10:08:12;22.45;70.11
71184;DHT22;58887;51.980;4.464;2023-09-18T10:10:42;22.43;68.44
71184;DHT22;58887;51.980;4.464;2023-09-18T10:15:48;22.56;69.89
71184;DHT22;58887;51.980;4.464;2023-09-18T10:18:27;23.06;67.93
71184;DHT22;58887;51.980;4.464;2023-09-18T10:21:47;23.00;67.41
71184;DHT22;58887;51.980;4.464;2023-09-18T10:24:18;22.55;68.18
71184;DHT22;58887;51.980;4.464;2023-09-18T10:26:54;22.70;67.47
71184;DHT22;58887;51.980;4.464;2023-09-18T10:29:22;22.49;67.11
71184;DHT22;58887;51.980;4.464;2023-09-18T10:31:50;23.48;65.40
71184;DHT22;58887;51.980;4.464;2023-09-18T10:34:18;23.00;67.00
71184;DHT22;58887;51.980;4.464;2023-09-18T10:36:47;22.55;66.89
71184;DHT22;58887;51.980;4.464;2023-09-18T10:39:13;22.41;67.65
71184;DHT22;58887;51.980;4.464;2023-09-18T10:41:47;23.68;64.88
71184;DHT22;58887;51.980;4.464;2023-09-18T10:44:14;23.13;66.40
71184;DHT22;58887;51.980;4.464;2023-09-18T10:46:40;23.20;67.47
71184;DHT22;58887;51.980;4.464;2023-09-18T10:49:06;23.21;65.93
71184;DHT22;58887;51.980;4.464;2023-09-18T10:51:32;23.68;64.96
71184;DHT22;58887;51.980;4.464;2023-09-18T10:54:03;24.09;65.25
71184;DHT22;58887;51.980;4.464;2023-09-18T10:56:30;24.72;61.53
71184;DHT22;58887;51.980;4.464;2023-09-18T10:58:59;24.19;61.59
71184;DHT22;58887;51.980;4.464;2023-09-18T11:01:24;24.72;60.37
71184;DHT22;58887;51.980;4.464;2023-09-18T11:03:53;24.64;60.05
71184;DHT22;58887;51.980;4.464;2023-09-18T11:06:22;25.05;59.41
71184;DHT22;58887;51.980;4.464;2023-09-18T11:08:59;25.71;59.61
71184;DHT22;58887;51.980;4.464;2023-09-18T11:11:30;26.22;57.72
71184;DHT22;58887;51.980;4.464;2023-09-18T11:13:59;26.51;55.95
71184;DHT22;58887;51.980;4.464;2023-09-18T11:21:33;25.22;58.60
71184;DHT22;58887;51.980;4.464;2023-09-18T11:24:00;24.72;61.16
71184;DHT22;58887;51.980;4.464;2023-09-18T11:26:46;24.64;61.00
71184;DHT22;58887;51.980;4.464;2023-09-18T11:29:35;24.09;62.79
71184;DHT22;58887;51.980;4.464;2023-09-18T11:32:02;24.56;61.64
71184;DHT22;58887;51.980;4.464;2023-09-18T11:34:30;25.14;58.71
71184;DHT22;58887;51.980;4.464;2023-09-18T11:37:00;25.28;57.94
71184;DHT22;58887;51.980;4.464;2023-09-18T11:42:09;23.44;63.39
71184;DHT22;58887;51.980;4.464;2023-09-18T11:44:35;23.95;62.91
71184;DHT22;58887;51.980;4.464;2023-09-18T11:47:08;23.88;63.45
71184;DHT22;58887;51.980;4.464;2023-09-18T11:49:38;24.50;62.00
71184;DHT22;58887;51.980;4.464;2023-09-18T11:52:07;24.44;60.17
71184;DHT22;58887;51.980;4.464;2023-09-18T11:54:32;24.23;60.74
71184;DHT22;58887;51.980;4.464;2023-09-18T11:57:03;25.16;60.17
71184;DHT22;58887;51.980;4.464;2023-09-18T11:59:41;25.14;59.21
71184;DHT22;58887;51.980;4.464;2023-09-18T12:02:09;26.18;56.59
71184;DHT22;58887;51.980;4.464;2023-09-18T12:04:36;26.68;54.17
71184;DHT22;58887;51.980;4.464;2023-09-18T12:07:04;25.49;56.85
71184;DHT22;58887;51.980;4.464;2023-09-18T12:09:30;26.26;55.61
71184;DHT22;58887;51.980;4.464;2023-09-18T12:12:00;26.63;55.40
71184;DHT22;58887;51.980;4.464;2023-09-18T12:14:32;26.63;54.72
71184;DHT22;58887;51.980;4.464;2023-09-18T12:17:02;26.68;54.09
71184;DHT22;58887;51.980;4.464;2023-09-18T12:19:33;25.26;58.17
71184;DHT22;58887;51.980;4.464;2023-09-18T12:22:00;25.16;59.94
71184;DHT22;58887;51.980;4.464;2023-09-18T12:24:27;25.25;60.27
71184;DHT22;58887;51.980;4.464;2023-09-18T12:26:54;26.15;57.75
71184;DHT22;58887;51.980;4.464;2023-09-18T12:29:21;26.07;57.90
71184;DHT22;58887;51.980;4.464;2023-09-18T12:31:47;25.08;61.44
71184;DHT22;58887;51.980;4.464;2023-09-18T12:34:17;24.96;60.73
71184;DHT22;58887;51.980;4.464;2023-09-18T12:36:44;25.70;59.89
71184;DHT22;58887;51.980;4.464;2023-09-18T12:39:13;25.62;58.88
71184;DHT22;58887;51.980;4.464;2023-09-18T12:41:43;26.24;57.67
71184;DHT22;58887;51.980;4.464;2023-09-18T12:44:10;26.82;54.83
71184;DHT22;58887;51.980;4.464;2023-09-18T12:46:36;26.01;56.67
71184;DHT22;58887;51.980;4.464;2023-09-18T12:49:23;25.01;60.96
71184;DHT22;58887;51.980;4.464;2023-09-18T12:51:57;25.80;57.82
71184;DHT22;58887;51.980;4.464;2023-09-18T12:57:05;26.24;57.20
71184;DHT22;58887;51.980;4.464;2023-09-18T12:59:37;26.96;54.95
71184;DHT22;58887;51.980;4.464;2023-09-18T13:02:07;27.65;54.43
71184;DHT22;58887;51.980;4.464;2023-09-18T13:04:36;27.92;53.90
71184;DHT22;58887;51.980;4.464;2023-09-18T13:07:10;28.08;53.22
71184;DHT22;58887;51.980;4.464;2023-09-18T13:09:37;28.59;51.14
71184;DHT22;58887;51.980;4.464;2023-09-18T13:12:03;28.12;51.34
71184;DHT22;58887;51.980;4.464;2023-09-18T13:14:29;27.61;51.54
71184;DHT22;58887;51.980;4.464;2023-09-18T13:17:02;26.53;54.48
71184;DHT22;58887;51.980;4.464;2023-09-18T13:19:30;26.75;54.62
71184;DHT22;58887;51.980;4.464;2023-09-18T13:21:56;27.55;52.10
71184;DHT22;58887;51.980;4.464;2023-09-18T13:24:29;26.51;55.14
71184;DHT22;58887;51.980;4.464;2023-09-18T13:26:56;25.66;56.22
71184;DHT22;58887;51.980;4.464;2023-09-18T13:29:23;24.96;58.08
71184;DHT22;58887;51.980;4.464;2023-09-18T13:31:49;23.96;60.42
71184;DHT22;58887;51.980;4.464;2023-09-18T13:34:15;23.57;61.70
71184;DHT22;58887;51.980;4.464;2023-09-18T13:36:44;23.50;62.14
71184;DHT22;58887;51.980;4.464;2023-09-18T13:39:11;23.73;61.62
71184;DHT22;58887;51.980;4.464;2023-09-18T13:41:37;23.55;61.35
71184;DHT22;58887;51.980;4.464;2023-09-18T13:44:03;23.41;61.44
71184;DHT22;58887;51.980;4.464;2023-09-18T13:46:29;23.22;62.26
71184;DHT22;58887;51.980;4.464;2023-09-18T13:48:54;23.06;62.75
71184;DHT22;58887;51.980;4.464;2023-09-18T13:51:20;23.03;63.87
71184;DHT22;58887;51.980;4.464;2023-09-18T13:53:45;22.94;64.29
71184;DHT22;58887;51.980;4.464;2023-09-18T13:56:13;22.76;64.12
71184;DHT22;58887;51.980;4.464;2023-09-18T13:58:38;22.67;63.86
71184;DHT22;58887;51.980;4.464;2023-09-18T14:01:06;22.52;64.88
71184;DHT22;58887;51.980;4.464;2023-09-18T14:03:33;22.45;65.16
71184;DHT22;58887;51.980;4.464;2023-09-18T14:05:59;22.26;65.68
71184;DHT22;58887;51.980;4.464;2023-09-18T14:08:25;22.19;68.01
71184;DHT22;58887;51.980;4.464;2023-09-18T14:10:50;21.65;71.56
71184;DHT22;58887;51.980;4.464;2023-09-18T14:13:15;21.61;73.16
71184;DHT22;58887;51.980;4.464;2023-09-18T14:15:42;21.29;73.11
71184;DHT22;58887;51.980;4.464;2023-09-18T14:18:08;20.72;78.74
71184;DHT22;58887;51.980;4.464;2023-09-18T14:20:34;19.73;83.72
71184;DHT22;58887;51.980;4.464;2023-09-18T14:22:59;19.22;84.83
71184;DHT22;58887;51.980;4.464;2023-09-18T14:25:25;18.96;86.28
71184;DHT22;58887;51.980;4.464;2023-09-18T14:27:50;18.77;86.83
71184;DHT22;58887;51.980;4.464;2023-09-18T14:30:16;18.80;86.70
71184;DHT22;58887;51.980;4.464;2023-09-18T14:32:41;18.86;86.54
71184;DHT22;58887;51.980;4.464;2023-09-18T14:35:07;18.91;85.69
71184;DHT22;58887;51.980;4.464;2023-09-18T14:37:34;18.89;85.47
71184;DHT22;58887;51.980;4.464;2023-09-18T14:39:59;18.91;84.80
71184;DHT22;58887;51.980;4.464;2023-09-18T14:42:25;18.81;84.64
71184;DHT22;58887;51.980;4.464;2023-09-18T14:44:51;18.69;84.59
71184;DHT22;58887;51.980;4.464;2023-09-18T14:47:17;18.74;84.63
71184;DHT22;58887;51.980;4.464;2023-09-18T14:49:42;18.69;83.48
71184;DHT22;58887;51.980;4.464;2023-09-18T14:52:14;18.67;82.71
71184;DHT22;58887;51.980;4.464;2023-09-18T14:54:41;18.48;83.84
71184;DHT22;58887;51.980;4.464;2023-09-18T14:57:06;18.48;83.08
71184;DHT22;58887;51.980;4.464;2023-09-18T14:59:32;18.81;83.48
71184;DHT22;58887;51.980;4.464;2023-09-18T15:01:58;20.03;81.59
71184;DHT22;58887;51.980;4.464;2023-09-18T15:04:23;21.44;77.15
71184;DHT22;58887;51.980;4.464;2023-09-18T15:06:49;21.95;74.87
71184;DHT22;58887;51.980;4.464;2023-09-18T15:09:15;22.72;72.49
71184;DHT22;58887;51.980;4.464;2023-09-18T15:11:40;23.00;70.93
71184;DHT22;58887;51.980;4.464;2023-09-18T15:14:06;23.15;70.87
71184;DHT22;58887;51.980;4.464;2023-09-18T15:16:34;23.15;68.13
71184;DHT22;58887;51.980;4.464;2023-09-18T15:19:00;23.30;69.82
71184;DHT22;58887;51.980;4.464;2023-09-18T15:21:27;23.69;66.32
71184;DHT22;58887;51.980;4.464;2023-09-18T15:23:53;23.85;68.89
71184;DHT22;58887;51.980;4.464;2023-09-18T15:26:19;23.63;67.04
71184;DHT22;58887;51.980;4.464;2023-09-18T15:28:44;23.17;68.67
71184;DHT22;58887;51.980;4.464;2023-09-18T15:31:09;23.82;68.99
71184;DHT22;58887;51.980;4.464;2023-09-18T15:33:35;23.08;67.97
71184;DHT22;58887;51.980;4.464;2023-09-18T15:36:00;22.18;71.09
71184;DHT22;58887;51.980;4.464;2023-09-18T15:38:27;21.39;73.62
71184;DHT22;58887;51.980;4.464;2023-09-18T15:40:52;21.10;75.00
71184;DHT22;58887;51.980;4.464;2023-09-18T15:43:18;20.91;75.89
71184;DHT22;58887;51.980;4.464;2023-09-18T15:45:43;20.61;76.56